Time;durP1;ratioP1;P1;durP2;ratioP2;P2;SDS_P1;SDS_P2;PMS_P1;PMS_P2;Temp;Humidity;BMP_temperature;BMP_pressure;BME280_temperature;BME280_humidity;BME280_pressure;Samples;Min_cycle;Max_cycle;Signal;HPM_P1;HPM_P2
2023/02/13 00:01:45;;;;;;;4.40;2.50;;;;;;;-2.33;72.99;100351.52;105221;1266;61625;-25
2023/02/13 00:04:14;;;;;;;5.00;2.50;;;;;;;-2.61;73.81;100349.48;105241;1266;73168;-24
2023/02/13 00:06:42;;;;;;;6.20;3.00;;;;;;;-2.89;74.99;100348.63;105165;1269;74058;-24
2023/02/13 00:09:12;;;;;;;6.50;2.80;;;;;;;-3.16;75.57;100346.04;105093;1263;73922;-24
2023/02/13 00:11:44;;;;;;;5.00;2.70;;;;;;;-3.40;77.14;100343.23;105165;1264;61259;-25
2023/02/13 00:14:13;;;;;;;6.10;2.80;;;;;;;-3.56;77.63;100341.77;105196;1263;61877;-25
2023/02/13 00:16:42;;;;;;;4.40;2.60;;;;;;;-3.68;78.55;100345.86;105199;1264;74386;-25
2023/02/13 00:19:12;;;;;;;6.60;3.60;;;;;;;-3.30;78.69;100351.52;105183;1269;75890;-25
2023/02/13 00:21:41;;;;;;;2.80;2.00;;;;;;;-2.69;76.52;100351.40;105191;1264;74717;-25
2023/02/13 00:24:10;;;;;;;5.40;3.20;;;;;;;-2.57;75.23;100348.27;105253;1264;61068;-25
2023/02/13 00:26:39;;;;;;;5.90;3.00;;;;;;;-2.77;75.49;100347.88;105266;1264;61054;-25
2023/02/13 00:29:09;;;;;;;5.30;3.00;;;;;;;-3.03;76.29;100346.66;105181;1268;75291;-25
2023/02/13 00:31:38;;;;;;;8.90;3.30;;;;;;;-3.24;76.47;100346.24;105226;1267;75919;-24
2023/02/13 00:34:07;;;;;;;7.80;4.20;;;;;;;-3.44;77.37;100344.95;105208;1264;73812;-24
2023/02/13 00:36:36;;;;;;;8.40;3.60;;;;;;;-3.63;78.41;100341.61;105202;1264;61240;-25
2023/02/13 00:39:05;;;;;;;7.50;3.10;;;;;;;-3.77;78.73;100333.83;105174;1264;61843;-25
2023/02/13 00:41:34;;;;;;;6.60;2.70;;;;;;;-3.90;79.75;100327.55;105221;1264;74605;-25
2023/02/13 00:44:03;;;;;;;4.20;2.70;;;;;;;-3.39;79.14;100326.74;105211;1267;75836;-24
2023/02/13 00:46:33;;;;;;;6.90;2.80;;;;;;;-2.81;77.12;100321.38;105170;1264;73101;-25
2023/02/13 00:49:02;;;;;;;4.00;2.70;;;;;;;-2.73;75.90;100322.02;105164;1267;61076;-24
2023/02/13 00:51:35;;;;;;;4.90;2.90;;;;;;;-2.90;75.88;100326.02;105241;1268;61828;-25
2023/02/13 00:54:04;;;;;;;7.10;3.00;;;;;;;-3.13;76.30;100328.02;105149;1264;74128;-24
2023/02/13 00:56:32;;;;;;;8.20;3.40;;;;;;;-3.36;76.98;100327.09;105595;1257;75927;-24
2023/02/13 00:59:03;;;;;;;6.70;2.70;;;;;;;-3.58;77.41;100325.63;105578;1259;74278;-24
2023/02/13 01:01:33;;;;;;;5.40;3.00;;;;;;;-3.77;77.85;100326.36;105553;1257;61103;-24
2023/02/13 01:04:02;;;;;;;6.30;3.20;;;;;;;-3.94;78.51;100332.15;105668;1257;61798;-24
2023/02/13 01:06:31;;;;;;;7.50;3.40;;;;;;;-4.09;78.90;100328.95;105649;1261;74312;-24
2023/02/13 01:09:02;;;;;;;5.30;2.60;;;;;;;-4.23;78.87;100327.77;105646;1262;75896;-24
2023/02/13 01:11:31;;;;;;;4.70;2.40;;;;;;;-4.36;79.35;100333.02;105283;1257;74199;-24
2023/02/13 01:14:01;;;;;;;5.10;2.70;;;;;;;-3.87;79.67;100336.20;105598;1260;61710;-24
2023/02/13 01:16:31;;;;;;;9.40;3.10;;;;;;;-3.00;78.26;100331.52;105680;1263;61629;-25
2023/02/13 01:19:01;;;;;;;5.30;2.90;;;;;;;-2.79;76.58;100329.36;105624;1257;74593;-25
2023/02/13 01:21:32;;;;;;;8.20;3.50;;;;;;;-2.94;76.22;100326.56;105633;1264;75817;-24
2023/02/13 01:24:07;;;;;;;6.00;3.00;;;;;;;-3.23;76.54;100323.30;105588;1260;74192;-24
2023/02/13 01:26:37;;;;;;;7.50;2.90;;;;;;;-3.47;77.31;100326.27;105639;1258;61167;-25
2023/02/13 01:29:06;;;;;;;6.20;3.30;;;;;;;-3.72;78.25;100318.02;105623;1258;61460;-24
2023/02/13 01:31:36;;;;;;;7.00;3.30;;;;;;;-3.91;79.46;100311.11;105591;1257;74526;-24
2023/02/13 01:34:05;;;;;;;4.90;3.10;;;;;;;-4.06;80.65;100308.60;105606;1260;74991;-24
2023/02/13 01:36:36;;;;;;;5.00;2.90;;;;;;;-4.15;81.33;100301.48;105575;1260;72888;-26
2023/02/13 01:39:05;;;;;;;9.50;2.60;;;;;;;-3.65;81.18;100299.16;105444;1258;61345;-26
2023/02/13 01:41:34;;;;;;;5.10;2.60;;;;;;;-2.95;79.34;100300.73;105575;1261;61549;-25
2023/02/13 01:44:42;;;;;;;3.50;2.70;;;;;;;-2.81;77.72;100300.13;105577;1257;75362;-25
2023/02/13 01:47:12;;;;;;;6.80;3.30;;;;;;;-3.01;77.52;100294.99;105643;1258;75903;-24
2023/02/13 01:49:47;;;;;;;5.70;3.30;;;;;;;-3.26;78.07;100291.55;105448;1261;74374;-25
2023/02/13 01:52:16;;;;;;;5.10;2.80;;;;;;;-3.47;79.00;100288.41;105222;1257;61163;-25
2023/02/13 01:54:44;;;;;;;4.00;2.60;;;;;;;-3.67;79.64;100288.65;105551;1260;61345;-25
2023/02/13 01:57:17;;;;;;;5.40;3.70;;;;;;;-3.83;80.74;100286.66;105604;1257;74457;-25
2023/02/13 01:59:56;;;;;;;4.60;2.50;;;;;;;-3.92;81.12;100285.15;105482;1263;76144;-25
2023/02/13 02:02:28;;;;;;;6.20;3.10;;;;;;;-3.33;80.99;100280.36;105227;1262;73824;-25
2023/02/13 02:05:00;;;;;;;5.00;3.30;;;;;;;-2.72;79.12;100279.00;105673;1261;61890;-25
2023/02/13 02:07:31;;;;;;;9.20;3.00;;;;;;;-2.68;77.94;100268.27;105430;1261;61100;-25
2023/02/13 02:10:07;;;;;;;5.90;4.10;;;;;;;-2.86;78.09;100267.04;105560;1261;74579;-25
2023/02/13 02:12:37;;;;;;;6.80;3.70;;;;;;;-3.10;78.86;100260.20;105517;1260;74864;-25
2023/02/13 02:15:08;;;;;;;7.20;3.60;;;;;;;-3.31;79.66;100254.89;105618;1260;73033;-25
2023/02/13 02:17:38;;;;;;;6.50;4.20;;;;;;;-3.52;80.27;100252.42;105324;1257;61295;-25
2023/02/13 02:20:32;;;;;;;7.30;4.50;;;;;;;-3.71;81.10;100252.34;105477;1257;61740;-25
2023/02/13 02:23:25;;;;;;;6.80;3.80;;;;;;;-3.78;81.89;100250.67;105536;1260;74324;-25
2023/02/13 02:26:24;;;;;;;7.80;4.10;;;;;;;-3.00;81.12;100252.49;105600;1262;75888;-25
2023/02/13 02:29:13;;;;;;;6.10;3.90;;;;;;;-2.49;79.03;100251.45;105616;1257;73998;-25
2023/02/13 02:32:05;;;;;;;7.40;3.70;;;;;;;-2.58;78.26;100250.16;105609;1263;61106;-25
2023/02/13 02:34:55;;;;;;;20.70;7.10;;;;;;;-2.93;78.29;100248.89;105653;1263;61176;-25
2023/02/13 02:37:31;;;;;;;9.30;4.50;;;;;;;-3.21;78.55;100248.05;105167;1257;74709;-25
2023/02/13 02:40:18;;;;;;;8.10;4.30;;;;;;;-3.49;78.22;100245.64;105181;1262;75959;-25
2023/02/13 02:42:59;;;;;;;4.70;3.20;;;;;;;-3.84;77.89;100238.97;105211;1261;74130;-25
2023/02/13 02:45:35;;;;;;;7.00;3.40;;;;;;;-4.15;78.64;100239.56;105170;1263;61182;-25
2023/02/13 02:51:53;;;;;;;5.30;3.00;;;;;;;-3.15;77.74;100244.09;105174;1267;74630;-24
2023/02/13 02:55:05;;;;;;;6.20;2.90;;;;;;;-3.09;76.88;100244.06;105176;1269;75842;-24
2023/02/13 03:06:15;;;;;;;7.50;4.30;;;;;;;-4.13;81.09;100239.23;105161;1261;73723;-24
2023/02/13 03:14:28;;;;;;;31.00;11.30;;;;;;;-2.91;79.31;100239.52;105400;1257;61077;-24
2023/02/13 03:23:20;;;;;;;14.40;6.70;;;;;;;-3.28;78.87;100238.05;105241;1271;75859;-24
2023/02/13 03:26:17;;;;;;;9.60;3.90;;;;;;;-3.44;79.12;100235.93;105226;1258;73239;-24
2023/02/13 03:31:52;;;;;;;5.10;3.00;;;;;;;-3.62;80.34;100230.58;105228;1262;61152;-25
2023/02/13 03:34:23;;;;;;;5.40;3.30;;;;;;;-2.91;80.69;100228.81;105172;1267;73538;-25
2023/02/13 03:40:04;;;;;;;6.50;3.70;;;;;;;-2.18;77.93;100219.86;105542;1261;74258;-24
2023/02/13 03:42:44;;;;;;;8.80;4.90;;;;;;;-2.33;78.12;100209.63;105522;1263;61179;-25
2023/02/13 03:45:52;;;;;;;4.90;3.60;;;;;;;-2.53;78.86;100207.27;105613;1261;61102;-25
2023/02/13 03:51:46;;;;;;;6.30;3.90;;;;;;;-2.91;79.96;100200.61;105347;1267;74661;-24
2023/02/13 04:00:51;;;;;;;6.10;2.80;;;;;;;-2.00;80.00;100204.52;105418;1269;61857;-24
2023/02/13 04:03:30;;;;;;;6.50;4.20;;;;;;;-1.57;77.72;100200.44;105529;1263;74381;-25
2023/02/13 04:06:24;;;;;;;9.10;4.60;;;;;;;-1.66;77.18;100204.80;105143;1260;74941;-24
2023/02/13 04:08:53;;;;;;;;;;;;;;;-1.89;77.88;100200.99;105080;1260;73904;-24
2023/02/13 04:12:04;;;;;;;6.40;3.30;;;;;;;-2.11;78.47;100199.02;105299;1256;61067;-24
2023/02/13 04:14:37;;;;;;;9.00;4.40;;;;;;;-2.44;79.38;100195.61;105066;1268;61894;-24
2023/02/13 04:17:13;;;;;;;5.00;3.80;;;;;;;-2.68;80.25;100196.34;105410;1270;75478;-24
2023/02/13 04:19:42;;;;;;;5.60;3.60;;;;;;;-2.70;80.80;100193.30;105230;1264;76218;-24
2023/02/13 04:22:13;;;;;;;5.40;3.60;;;;;;;-2.15;79.62;100199.59;105129;1262;73881;-25
2023/02/13 04:24:42;;;;;;;6.40;4.00;;;;;;;-1.91;78.25;100196.08;105260;1258;61774;-24
2023/02/13 04:27:14;;;;;;;7.60;4.60;;;;;;;-2.02;77.82;100190.25;105387;1258;61119;-24
2023/02/13 04:29:44;;;;;;;11.90;5.80;;;;;;;-2.25;78.08;100190.85;105542;1272;74154;-24
2023/02/13 04:32:13;;;;;;;9.50;5.20;;;;;;;-2.50;78.59;100191.24;105595;1271;75863;-25
2023/02/13 04:34:42;;;;;;;9.20;5.30;;;;;;;-2.75;79.26;100193.17;105315;1260;74170;-24
2023/02/13 04:37:11;;;;;;;9.30;5.50;;;;;;;-2.96;80.19;100188.92;105324;1259;61496;-24
2023/02/13 04:39:40;;;;;;;7.50;4.40;;;;;;;-3.02;80.66;100191.34;105275;1257;61756;-24
2023/02/13 04:42:09;;;;;;;7.30;3.80;;;;;;;-2.43;79.92;100190.34;105225;1257;75141;-25
2023/02/13 04:44:38;;;;;;;10.10;5.50;;;;;;;-2.07;78.18;100193.02;105056;1274;74341;-25
2023/02/13 04:47:07;;;;;;;8.40;5.10;;;;;;;-2.18;77.69;100192.13;105332;1259;74022;-24
2023/02/13 04:49:36;;;;;;;8.50;4.90;;;;;;;-2.43;78.20;100186.25;105331;1257;61061;-24
2023/02/13 04:52:05;;;;;;;9.10;5.70;;;;;;;-2.70;79.22;100188.88;105401;1260;61914;-24
2023/02/13 04:54:34;;;;;;;8.00;5.00;;;;;;;-2.92;79.88;100185.32;105415;1260;75371;-25
2023/02/13 04:57:03;;;;;;;11.00;5.20;;;;;;;-3.11;81.00;100191.92;105263;1263;75780;-25
2023/02/13 04:59:32;;;;;;;7.30;4.70;;;;;;;-3.23;81.46;100191.83;105207;1257;74024;-24
2023/02/13 05:02:01;;;;;;;8.80;4.60;;;;;;;-2.75;80.95;100194.52;105381;1260;61740;-24
2023/02/13 05:04:30;;;;;;;7.10;5.10;;;;;;;-2.36;79.80;100193.50;105565;1261;61817;-25
2023/02/13 05:06:59;;;;;;;10.40;6.20;;;;;;;-2.34;79.40;100193.31;105579;1258;74885;-24
2023/02/13 05:09:28;;;;;;;11.60;6.20;;;;;;;-2.51;80.58;100190.75;105270;1260;75589;-24
2023/02/13 05:11:57;;;;;;;14.40;9.20;;;;;;;-2.63;81.06;100179.46;105329;1260;73246;-25
2023/02/13 05:14:26;;;;;;;7.50;5.40;;;;;;;-2.78;81.97;100181.82;105351;1260;61192;-25
2023/02/13 05:16:55;;;;;;;6.70;5.30;;;;;;;-2.51;81.87;100186.15;105589;1260;61844;-25
2023/02/13 05:19:24;;;;;;;15.70;9.30;;;;;;;-2.14;80.43;100184.08;105344;1263;74158;-25
2023/02/13 05:24:40;;;;;;;14.70;9.00;;;;;;;-2.49;80.77;100166.76;105547;1261;74197;-25
2023/02/13 05:27:09;;;;;;;13.80;8.30;;;;;;;-2.69;81.90;100180.55;105242;1263;61165;-24
2023/02/13 05:29:37;;;;;;;15.80;9.00;;;;;;;-2.78;82.72;100180.11;105470;1260;61745;-24
2023/02/13 05:32:06;;;;;;;16.40;10.40;;;;;;;-2.50;82.28;100177.47;105367;1260;74368;-24
2023/02/13 05:34:35;;;;;;;16.90;9.20;;;;;;;-2.25;81.00;100166.86;105235;1263;75924;-25
2023/02/13 05:37:04;;;;;;;15.80;9.10;;;;;;;-2.22;80.82;100178.73;105397;1257;74275;-24
2023/02/13 05:39:33;;;;;;;11.40;7.80;;;;;;;-2.42;81.51;100182.34;105324;1258;61014;-24
2023/02/13 05:42:03;;;;;;;11.60;6.60;;;;;;;-2.53;82.25;100175.80;105309;1257;61620;-25
2023/02/13 05:44:32;;;;;;;12.10;8.60;;;;;;;-2.66;82.55;100170.32;105329;1257;75305;-24
2023/02/13 05:47:01;;;;;;;15.50;10.00;;;;;;;-2.48;82.70;100170.83;105429;1261;75817;-25
2023/02/13 05:49:31;;;;;;;16.00;10.60;;;;;;;-2.24;81.14;100160.04;105331;1257;74486;-24
2023/02/13 05:52:00;;;;;;;12.10;7.50;;;;;;;-2.38;81.79;100174.48;105204;1257;61055;-25
2023/02/13 05:54:28;;;;;;;13.10;8.00;;;;;;;-2.31;81.85;100176.61;105248;1261;61122;-25
2023/02/13 05:56:57;;;;;;;20.00;9.10;;;;;;;-2.45;82.21;100176.41;105354;1257;75161;-25
2023/02/13 05:59:26;;;;;;;11.90;7.00;;;;;;;-2.50;82.88;100168.46;105311;1261;76091;-25
2023/02/13 06:01:55;;;;;;;17.40;9.60;;;;;;;-2.07;81.57;100173.79;105421;1260;74166;-25
2023/02/13 06:04:23;;;;;;;11.50;7.40;;;;;;;-2.06;81.19;100163.23;105508;1258;61610;-25
2023/02/13 06:06:52;;;;;;;14.60;8.80;;;;;;;-2.22;81.46;100154.23;105298;1258;61692;-26
2023/02/13 06:17:01;;;;;;;9.80;6.10;;;;;;;-1.58;80.66;100137.61;102706;1290;600748;-26
2023/02/13 06:19:29;;;;;;;13.10;7.10;;;;;;;-1.46;79.24;100136.23;105198;1263;61065;-25
2023/02/13 06:21:58;;;;;;;18.10;8.70;;;;;;;-1.61;79.56;100135.59;105140;1263;61495;-26
2023/02/13 06:24:27;;;;;;;11.80;7.70;;;;;;;-1.80;80.35;100139.45;105231;1267;73537;-25
2023/02/13 06:26:56;;;;;;;14.00;8.20;;;;;;;-2.00;81.08;100136.27;105265;1263;75661;-26
2023/02/13 06:29:25;;;;;;;13.30;7.00;;;;;;;-2.00;81.52;100130.65;105225;1264;73807;-26
2023/02/13 06:31:53;;;;;;;8.90;6.30;;;;;;;-1.52;80.52;100138.36;103908;1265;61157;-25
2023/02/13 06:34:22;;;;;;;13.00;7.90;;;;;;;-1.40;79.99;100129.34;105229;1269;61227;-23
2023/02/13 06:36:51;;;;;;;15.10;8.20;;;;;;;-1.53;80.04;100128.34;105180;1267;73583;-25
2023/02/13 06:39:20;;;;;;;11.80;7.20;;;;;;;-1.65;80.65;100123.41;105209;1264;74857;-26
2023/02/13 06:41:48;;;;;;;16.50;7.80;;;;;;;-1.80;81.04;100124.80;105124;1263;74196;-26
2023/02/13 06:44:17;;;;;;;12.70;5.40;;;;;;;-1.84;81.78;100121.77;105250;1262;61637;-25
2023/02/13 06:46:45;;;;;;;15.40;8.20;;;;;;;-1.28;80.70;100124.05;105296;1264;61618;-25
2023/02/13 06:49:14;;;;;;;8.30;4.80;;;;;;;-1.08;79.77;100127.83;105199;1265;74576;-25
2023/02/13 06:51:43;;;;;;;16.20;8.00;;;;;;;-1.14;79.65;100131.50;105141;1264;75843;-26
2023/02/13 06:54:12;;;;;;;11.90;7.30;;;;;;;-1.36;80.76;100129.11;105118;1262;74158;-26
2023/02/13 06:56:41;;;;;;;11.30;6.30;;;;;;;-1.53;82.26;100127.30;105085;1263;61004;-26
2023/02/13 06:59:09;;;;;;;12.10;6.60;;;;;;;-1.68;83.88;100125.98;105067;1264;61846;-26
2023/02/13 07:01:38;;;;;;;13.80;6.80;;;;;;;-1.60;84.72;100122.48;104976;1265;74322;-25
2023/02/13 07:04:07;;;;;;;13.30;7.10;;;;;;;-1.12;83.98;100122.10;104994;1263;75822;-27
2023/02/13 07:06:37;;;;;;;12.40;7.50;;;;;;;-0.98;83.20;100122.05;105169;1267;72012;-25
2023/02/13 07:09:06;;;;;;;14.70;6.80;;;;;;;-1.03;83.42;100126.20;104992;1263;61122;-24
2023/02/13 07:11:36;;;;;;;13.80;7.80;;;;;;;-1.20;84.16;100123.92;104973;1265;62370;-25
2023/02/13 07:14:08;;;;;;;14.90;6.50;;;;;;;-1.37;85.32;100114.98;105261;1263;74251;-24
2023/02/13 07:16:38;;;;;;;10.50;6.30;;;;;;;-1.34;86.09;100112.20;104897;1263;75195;-25
2023/02/13 07:19:07;;;;;;;14.00;7.20;;;;;;;-0.82;85.12;100114.79;105203;1263;74159;-24
2023/02/13 07:21:36;;;;;;;14.90;7.20;;;;;;;-0.56;84.26;100111.27;105253;1263;61058;-25
2023/02/13 07:24:05;;;;;;;14.20;7.20;;;;;;;-0.73;84.01;100106.43;105151;1265;61542;-24
2023/02/13 07:26:35;;;;;;;10.10;6.20;;;;;;;-0.89;84.57;100100.93;105096;1263;75413;-24
2023/02/13 07:29:04;;;;;;;12.20;6.80;;;;;;;-1.06;85.24;100094.21;104879;1268;75991;-25
2023/02/13 07:31:39;;;;;;;7.00;4.90;;;;;;;-1.11;86.38;100089.36;104904;1265;74297;-25
2023/02/13 07:34:08;;;;;;;11.30;6.40;;;;;;;-0.58;85.78;100095.42;104923;1268;61164;-25
2023/02/13 07:36:36;;;;;;;12.50;6.10;;;;;;;-0.40;84.77;100091.83;105077;1265;61641;-25
2023/02/13 07:39:07;;;;;;;8.60;4.90;;;;;;;-0.45;84.51;100101.48;105079;1263;74289;-25
2023/02/13 07:41:36;;;;;;;8.60;5.50;;;;;;;-0.65;85.35;100097.25;104946;1264;75882;-26
2023/02/13 07:44:05;;;;;;;15.70;6.20;;;;;;;-0.81;86.28;100100.95;104923;1264;74215;-25
2023/02/13 07:46:34;;;;;;;11.40;7.00;;;;;;;-0.68;86.43;100093.04;104923;1263;63209;-25
2023/02/13 07:49:04;;;;;;;11.20;6.50;;;;;;;-0.20;85.02;100090.77;104897;1268;61211;-24
2023/02/13 07:51:32;;;;;;;10.90;6.60;;;;;;;-0.09;83.74;100092.77;105022;1263;74462;-25
2023/02/13 07:54:01;;;;;;;8.40;5.40;;;;;;;-0.27;83.91;100087.83;105206;1263;75766;-25
2023/02/13 07:56:30;;;;;;;12.50;7.00;;;;;;;-0.44;84.95;100090.39;105211;1263;73947;-25
2023/02/13 07:58:59;;;;;;;10.60;5.80;;;;;;;-0.62;85.57;100093.46;105254;1263;61056;-25
2023/02/13 08:01:27;;;;;;;10.90;7.30;;;;;;;-0.32;85.69;100094.23;105279;1263;62084;-25
2023/02/13 08:03:56;;;;;;;10.50;6.50;;;;;;;0.08;83.83;100094.28;105041;1263;74239;-25
2023/02/13 08:06:25;;;;;;;9.70;5.70;;;;;;;0.14;83.08;100088.02;105255;1265;73703;-25
2023/02/13 08:11:52;;;;;;;12.20;6.60;;;;;;;-0.03;83.46;100091.11;105198;1263;74085;-26
2023/02/13 08:11:54;;;;;;;9.00;5.20;;;;;;;-0.22;84.44;100085.00;105195;1263;61146;-25
2023/02/13 08:14:25;;;;;;;8.90;5.30;;;;;;;-0.41;85.31;100081.10;104842;1264;61673;-23
2023/02/13 08:16:53;;;;;;;11.10;5.20;;;;;;;-0.31;85.71;100071.52;104808;1271;74529;-24
2023/02/13 08:19:22;;;;;;;8.50;5.70;;;;;;;0.20;84.02;100077.11;105023;1263;75819;-25
2023/02/13 08:21:51;;;;;;;9.30;4.70;;;;;;;0.29;82.83;100078.61;105050;1263;74087;-25
2023/02/13 08:24:20;;;;;;;9.50;5.30;;;;;;;0.19;83.24;100082.77;104890;1263;61111;-25
2023/02/13 08:26:48;;;;;;;8.90;6.00;;;;;;;0.08;83.82;100077.73;105021;1269;62017;-25
2023/02/13 08:29:17;;;;;;;11.50;7.20;;;;;;;-0.14;85.26;100075.45;105126;1263;74572;-25
2023/02/13 08:31:45;;;;;;;8.30;4.90;;;;;;;-0.05;85.73;100078.00;104934;1263;75932;-25
2023/02/13 08:34:14;;;;;;;8.70;5.60;;;;;;;0.40;84.36;100080.60;105105;1263;74176;-25
2023/02/13 08:36:43;;;;;;;11.20;6.20;;;;;;;0.49;83.63;100087.39;105149;1268;61866;-25
2023/02/13 08:39:11;;;;;;;12.40;6.90;;;;;;;0.37;83.90;100082.72;105091;1268;61006;-25
2023/02/13 08:41:41;;;;;;;8.60;4.90;;;;;;;0.15;84.69;100079.27;104992;1268;74431;-25
2023/02/13 08:44:10;;;;;;;10.90;6.00;;;;;;;0.04;85.62;100080.04;105179;1267;75981;-25
2023/02/13 08:46:39;;;;;;;14.60;6.60;;;;;;;0.42;85.41;100079.02;105135;1265;74110;-25
2023/02/13 08:49:07;;;;;;;11.70;6.40;;;;;;;0.59;84.70;100080.16;105538;1257;61938;-25
2023/02/13 08:51:36;;;;;;;8.10;5.10;;;;;;;0.52;85.21;100080.31;105352;1261;61863;-25
2023/02/13 08:54:05;;;;;;;9.40;5.90;;;;;;;0.34;85.86;100077.48;105349;1262;74239;-25
2023/02/13 08:56:34;;;;;;;8.80;5.20;;;;;;;0.23;87.13;100077.58;105580;1260;75834;-25
2023/02/13 08:59:02;;;;;;;12.80;7.40;;;;;;;0.48;87.00;100077.83;105648;1257;73889;-25
2023/02/13 09:01:31;;;;;;;8.60;5.70;;;;;;;0.90;85.60;100077.02;105644;1259;61147;-25
2023/02/13 09:03:59;;;;;;;12.50;6.90;;;;;;;0.92;84.91;100072.02;105658;1259;62075;-25
2023/02/13 09:06:28;;;;;;;6.30;4.40;;;;;;;0.85;85.26;100072.19;105464;1256;74842;-25
2023/02/13 09:08:57;;;;;;;11.50;7.70;;;;;;;0.68;85.80;100072.27;105592;1259;75543;-25
2023/02/13 09:11:25;;;;;;;8.90;5.30;;;;;;;0.48;86.92;100068.95;105546;1255;74143;-25
2023/02/13 09:13:59;;;;;;;9.60;6.20;;;;;;;0.73;87.11;100070.93;105587;1256;61056;-25
2023/02/13 09:16:28;;;;;;;9.00;5.40;;;;;;;1.11;85.96;100071.88;105396;1257;61754;-25
2023/02/13 09:18:57;;;;;;;9.90;6.50;;;;;;;1.01;85.55;100067.17;105264;1257;74067;-24
2023/02/13 09:21:26;;;;;;;8.30;5.00;;;;;;;0.77;86.11;100061.60;105571;1257;75663;-25
2023/02/13 09:23:55;;;;;;;6.30;4.50;;;;;;;0.67;86.66;100063.58;105628;1257;74153;-25
2023/02/13 09:26:23;;;;;;;8.50;4.50;;;;;;;0.64;86.95;100059.02;105601;1259;62655;-25
2023/02/13 09:28:52;;;;;;;7.00;4.30;;;;;;;1.09;86.07;100059.10;105608;1255;61895;-25
2023/02/13 09:37:59;;;;;;;6.50;4.60;;;;;;;0.73;87.21;100038.30;103111;1286;600209;-24
2023/02/13 09:40:36;;;;;;;13.20;7.60;;;;;;;0.92;87.33;100041.22;104842;1272;61124;-24
2023/02/13 09:43:50;;;;;;;12.50;7.40;;;;;;;1.26;86.11;100030.93;104851;1273;61129;-25
2023/02/13 09:46:22;;;;;;;11.30;7.10;;;;;;;1.20;85.80;100038.27;104801;1267;74201;-25
2023/02/13 09:48:53;;;;;;;12.80;8.20;;;;;;;0.93;86.75;100023.60;104845;1273;74614;-24
2023/02/13 09:51:24;;;;;;;7.90;4.90;;;;;;;0.91;87.77;100030.47;103488;1270;1826804;-25
2023/02/13 09:53:56;;;;;;;15.30;8.40;;;;;;;1.11;87.56;100013.90;104985;1269;62127;-25
2023/02/13 09:56:34;;;;;;;13.30;7.80;;;;;;;1.27;86.55;100017.40;104858;1269;61947;-25
2023/02/13 09:59:11;;;;;;;12.30;7.50;;;;;;;1.22;86.42;100021.30;104958;1264;73668;-24
2023/02/13 10:01:43;;;;;;;12.70;6.60;;;;;;;1.05;87.30;100014.39;104883;1272;75842;-25
2023/02/13 10:04:33;;;;;;;12.30;7.00;;;;;;;1.02;88.10;100014.63;104860;1270;74396;-24
2023/02/13 10:07:09;;;;;;;11.60;6.10;;;;;;;1.35;87.22;100013.60;104962;1268;61153;-24
2023/02/13 10:09:53;;;;;;;13.40;7.90;;;;;;;1.49;86.04;100006.67;104930;1270;61144;-25
2023/02/13 10:12:43;;;;;;;8.70;6.00;;;;;;;1.33;86.81;100009.69;104923;1264;74137;-24
2023/02/13 10:15:20;;;;;;;13.00;7.10;;;;;;;1.12;87.57;100009.94;105217;1264;75876;-25
2023/02/13 10:18:00;;;;;;;8.80;5.40;;;;;;;1.22;87.89;100008.80;105142;1261;73881;-26
2023/02/13 10:20:38;;;;;;;7.50;5.10;;;;;;;1.68;86.29;100004.96;105003;1268;61858;-25
2023/02/13 10:23:18;;;;;;;10.40;7.40;;;;;;;1.57;85.82;99999.09;105265;1266;61841;-24
2023/02/13 10:25:53;;;;;;;15.30;8.80;;;;;;;1.35;86.54;100003.65;105271;1267;74713;-23
2023/02/13 10:28:29;;;;;;;10.40;6.00;;;;;;;1.28;87.23;100008.81;105232;1266;76042;-25
2023/02/13 10:31:04;;;;;;;13.70;7.50;;;;;;;1.33;87.37;100001.66;105052;1270;74202;-25
2023/02/13 10:33:49;;;;;;;14.00;7.80;;;;;;;1.68;86.52;100007.86;105110;1265;61661;-25
2023/02/13 10:36:24;;;;;;;14.30;7.40;;;;;;;1.76;85.58;100002.15;105168;1264;61596;-24
2023/02/13 10:39:04;;;;;;;12.60;8.20;;;;;;;1.59;86.06;100006.21;105173;1267;74254;-25
2023/02/13 10:41:53;;;;;;;16.50;8.30;;;;;;;1.34;87.08;99999.39;105058;1273;75568;-24
2023/02/13 10:44:47;;;;;;;11.80;6.30;;;;;;;1.39;87.71;100000.64;105197;1266;73202;-24
2023/02/13 10:47:38;;;;;;;10.40;6.30;;;;;;;1.91;86.10;100003.06;105171;1263;61885;-25
2023/02/13 10:50:19;;;;;;;12.20;6.30;;;;;;;1.95;85.28;99990.27;104995;1267;61135;-25
2023/02/13 10:53:09;;;;;;;14.00;7.70;;;;;;;1.86;85.53;99991.75;105105;1269;73508;-25
2023/02/13 10:56:01;;;;;;;13.10;7.60;;;;;;;1.63;86.44;99992.23;104853;1264;75689;-25
2023/02/13 10:58:43;;;;;;;13.50;8.10;;;;;;;2.03;85.64;99987.98;104810;1266;74264;-25
2023/02/13 11:01:38;;;;;;;13.60;8.20;;;;;;;2.34;83.54;99979.64;104980;1264;61735;-25
2023/02/13 11:04:10;;;;;;;12.80;6.40;;;;;;;2.16;84.09;99979.86;104826;1263;61842;-24
2023/02/13 11:07:00;;;;;;;9.90;6.80;;;;;;;2.11;84.41;99982.23;104839;1264;74606;-24
2023/02/13 11:09:32;;;;;;;11.80;7.30;;;;;;;1.97;84.99;99982.02;104922;1264;75845;-26
2023/02/13 11:12:31;;;;;;;9.30;5.60;;;;;;;2.14;85.00;99982.85;104961;1269;74178;-26
2023/02/13 11:15:05;;;;;;;10.90;5.70;;;;;;;2.39;83.70;99983.75;105150;1260;61077;-25
2023/02/13 11:17:35;;;;;;;10.40;6.60;;;;;;;2.32;83.65;99978.67;105100;1264;61886;-26
2023/02/13 11:20:32;;;;;;;11.70;7.00;;;;;;;2.09;84.34;99967.73;105078;1262;74587;-24
2023/02/13 11:23:19;;;;;;;14.20;7.40;;;;;;;1.90;85.50;99969.38;105140;1262;75511;-26
2023/02/13 11:26:08;;;;;;;8.00;4.90;;;;;;;2.12;85.59;99970.58;105145;1263;74331;-24
2023/02/13 11:28:57;;;;;;;11.20;6.00;;;;;;;2.43;83.83;99971.13;105282;1260;61658;-24
2023/02/13 11:34:21;;;;;;;16.80;8.60;;;;;;;2.19;84.41;99959.05;102583;1294;600332;-26
2023/02/13 11:36:51;;;;;;;13.20;7.00;;;;;;;2.00;85.59;99953.47;104861;1266;61832;-25
2023/02/13 11:39:20;;;;;;;16.00;8.10;;;;;;;2.12;85.79;99957.89;104922;1270;61903;-26
2023/02/13 11:41:52;;;;;;;10.80;5.60;;;;;;;2.53;84.29;99942.50;104906;1272;72687;-24
2023/02/13 11:44:30;;;;;;;9.80;6.00;;;;;;;2.68;83.10;99937.01;105182;1268;74003;-25
2023/02/13 11:47:02;;;;;;;8.00;4.70;;;;;;;2.43;83.56;99927.09;103470;1263;1971966;-24
2023/02/13 11:49:32;;;;;;;9.50;5.70;;;;;;;2.31;84.13;99937.22;105285;1265;61225;-26
2023/02/13 11:52:06;;;;;;;10.80;6.60;;;;;;;2.12;85.31;99935.95;105229;1259;61573;-26
2023/02/13 11:54:35;;;;;;;12.80;7.30;;;;;;;2.51;84.51;99932.27;105295;1263;72860;-26
2023/02/13 11:57:23;;;;;;;11.60;6.30;;;;;;;2.90;82.49;99932.33;105156;1263;73881;-25
2023/02/13 11:59:52;;;;;;;10.80;7.00;;;;;;;2.80;82.08;99932.67;105107;1263;74181;-26
2023/02/13 12:02:28;;;;;;;11.40;7.10;;;;;;;2.58;83.02;99939.92;105021;1263;61718;-27
2023/02/13 12:05:22;;;;;;;8.20;5.90;;;;;;;2.26;84.13;99928.99;105359;1264;61930;-25
2023/02/13 12:07:51;;;;;;;14.10;7.10;;;;;;;2.36;84.60;99935.18;105420;1273;74546;-24
2023/02/13 12:10:22;;;;;;;11.70;7.80;;;;;;;2.61;83.66;99930.92;105272;1273;75424;-24
2023/02/13 12:13:12;;;;;;;12.00;7.60;;;;;;;2.56;83.30;99921.84;105306;1263;74263;-24
2023/02/13 12:15:40;;;;;;;13.20;8.70;;;;;;;2.38;84.22;99916.11;105278;1274;61049;-24
2023/02/13 12:18:16;;;;;;;9.40;6.20;;;;;;;2.21;84.74;99910.98;105283;1257;61052;-24
2023/02/13 12:21:07;;;;;;;10.90;5.90;;;;;;;2.30;84.99;99910.54;105106;1263;74567;-25
2023/02/13 12:23:48;;;;;;;11.50;7.20;;;;;;;2.63;83.39;99907.90;105098;1258;75835;-25
2023/02/13 12:26:29;;;;;;;14.80;6.80;;;;;;;2.56;82.97;99910.86;105207;1263;72858;-25
2023/02/13 12:28:57;;;;;;;10.80;7.40;;;;;;;2.29;84.20;99903.54;105275;1263;61937;-26
2023/02/13 12:31:38;;;;;;;8.20;5.80;;;;;;;2.08;85.29;99907.33;105122;1263;61749;-26
2023/02/13 12:34:45;;;;;;;11.50;6.80;;;;;;;2.13;85.87;99914.02;105131;1263;74551;-25
2023/02/13 12:37:39;;;;;;;14.50;8.00;;;;;;;2.53;84.45;99902.91;105471;1261;75594;-25
2023/02/13 12:40:26;;;;;;;15.40;7.80;;;;;;;2.53;83.75;99890.73;105040;1261;74050;-25
2023/02/13 12:43:23;;;;;;;12.40;7.30;;;;;;;2.33;84.66;99884.38;105441;1261;61639;-25
2023/02/13 12:46:21;;;;;;;10.20;6.40;;;;;;;2.13;85.40;99885.05;105302;1261;61867;-26
2023/02/13 12:49:12;;;;;;;15.20;9.20;;;;;;;2.32;85.54;99881.16;105280;1263;74609;-25